sensor_id;sensor_type;location;lat;lon;timestamp;pressure;altitude;pressure_sealevel;temperature;humidity
83563;BME280;73535;52.500;13.482;2024-02-26T00:01:46;100040.88;;;4.90;79.44
83563;BME280;73535;52.500;13.482;2024-02-26T00:04:11;100047.22;;;4.85;79.44
83563;BME280;73535;52.500;13.482;2024-02-26T00:06:38;100053.28;;;4.85;79.50
83563;BME280;73535;52.500;13.482;2024-02-26T00:09:06;100056.84;;;4.84;79.50
83563;BME280;73535;52.500;13.482;2024-02-26T00:11:31;100055.22;;;4.82;79.55
83563;BME280;73535;52.500;13.482;2024-02-26T00:13:57;100050.09;;;4.80;79.70
83563;BME280;73535;52.500;13.482;2024-02-26T00:16:23;100049.19;;;4.81;79.55
83563;BME280;73535;52.500;13.482;2024-02-26T00:18:48;100037.25;;;4.77;79.16
83563;BME280;73535;52.500;13.482;2024-02-26T00:21:13;100041.56;;;4.78;79.50
83563;BME280;73535;52.500;13.482;2024-02-26T00:23:38;100039.78;;;4.79;79.28
83563;BME280;73535;52.500;13.482;2024-02-26T00:26:03;100041.56;;;4.78;79.79
83563;BME280;73535;52.500;13.482;2024-02-26T00:28:29;100044.31;;;4.75;79.75
83563;BME280;73535;52.500;13.482;2024-02-26T00:30:54;100044.50;;;4.72;79.66
83563;BME280;73535;52.500;13.482;2024-02-26T00:33:21;100043.66;;;4.72;79.94
83563;BME280;73535;52.500;13.482;2024-02-26T00:35:46;100037.59;;;4.71;79.96
83563;BME280;73535;52.500;13.482;2024-02-26T00:38:11;100031.81;;;4.66;79.67
83563;BME280;73535;52.500;13.482;2024-02-26T00:40:36;100029.44;;;4.62;80.01
83563;BME280;73535;52.500;13.482;2024-02-26T00:43:02;100032.31;;;4.57;79.75
83563;BME280;73535;52.500;13.482;2024-02-26T00:45:27;100034.25;;;4.53;79.79
83563;BME280;73535;52.500;13.482;2024-02-26T00:47:52;100024.41;;;4.58;80.09
83563;BME280;73535;52.500;13.482;2024-02-26T00:50:17;100024.91;;;4.65;80.28
83563;BME280;73535;52.500;13.482;2024-02-26T00:52:43;100023.00;;;4.69;80.38
83563;BME280;73535;52.500;13.482;2024-02-26T00:55:08;100026.69;;;4.65;80.28
83563;BME280;73535;52.500;13.482;2024-02-26T00:57:33;100020.91;;;4.60;80.49
83563;BME280;73535;52.500;13.482;2024-02-26T00:59:59;100023.94;;;4.52;80.18
83563;BME280;73535;52.500;13.482;2024-02-26T01:02:25;100013.53;;;4.52;80.61
83563;BME280;73535;52.500;13.482;2024-02-26T01:04:50;100008.00;;;4.58;80.31
83563;BME280;73535;52.500;13.482;2024-02-26T01:07:16;100006.97;;;4.61;80.34
83563;BME280;73535;52.500;13.482;2024-02-26T01:09:42;100011.16;;;4.63;80.59
83563;BME280;73535;52.500;13.482;2024-02-26T01:12:07;100021.75;;;4.60;80.66
83563;BME280;73535;52.500;13.482;2024-02-26T01:14:32;100016.44;;;4.62;80.44
83563;BME280;73535;52.500;13.482;2024-02-26T01:16:57;100014.84;;;4.59;80.65
83563;BME280;73535;52.500;13.482;2024-02-26T01:19:23;100020.22;;;4.56;80.57
83563;BME280;73535;52.500;13.482;2024-02-26T01:21:48;100018.72;;;4.52;80.78
83563;BME280;73535;52.500;13.482;2024-02-26T01:24:13;100018.97;;;4.47;81.00
83563;BME280;73535;52.500;13.482;2024-02-26T01:26:38;100021.84;;;4.43;80.57
83563;BME280;73535;52.500;13.482;2024-02-26T01:29:04;100012.34;;;4.42;80.59
83563;BME280;73535;52.500;13.482;2024-02-26T01:31:29;100012.50;;;4.39;80.37
83563;BME280;73535;52.500;13.482;2024-02-26T01:33:54;100006.28;;;4.41;80.77
83563;BME280;73535;52.500;13.482;2024-02-26T01:36:19;100010.69;;;4.41;80.68
83563;BME280;73535;52.500;13.482;2024-02-26T01:38:46;100009.00;;;4.40;80.71
83563;BME280;73535;52.500;13.482;2024-02-26T01:41:13;100005.66;;;4.38;80.87
83563;BME280;73535;52.500;13.482;2024-02-26T01:43:38;99999.94;;;4.31;80.67
83563;BME280;73535;52.500;13.482;2024-02-26T01:46:04;100003.44;;;4.30;80.52
83563;BME280;73535;52.500;13.482;2024-02-26T01:48:30;100002.53;;;4.31;80.79
83563;BME280;73535;52.500;13.482;2024-02-26T01:50:55;100004.72;;;4.23;80.47
83563;BME280;73535;52.500;13.482;2024-02-26T01:53:20;100001.44;;;4.20;80.55
83563;BME280;73535;52.500;13.482;2024-02-26T01:55:46;100007.81;;;4.14;80.65
83563;BME280;73535;52.500;13.482;2024-02-26T01:58:11;100005.75;;;4.04;80.45
83563;BME280;73535;52.500;13.482;2024-02-26T02:00:37;100010.06;;;4.05;80.74
83563;BME280;73535;52.500;13.482;2024-02-26T02:03:04;100012.47;;;4.08;80.55
83563;BME280;73535;52.500;13.482;2024-02-26T02:05:30;100007.28;;;4.08;80.91
83563;BME280;73535;52.500;13.482;2024-02-26T02:07:56;100006.53;;;4.06;80.88
83563;BME280;73535;52.500;13.482;2024-02-26T02:10:21;100010.91;;;4.05;80.93
83563;BME280;73535;52.500;13.482;2024-02-26T02:12:48;100014.50;;;4.03;80.93
83563;BME280;73535;52.500;13.482;2024-02-26T02:15:14;100011.06;;;4.02;81.20
83563;BME280;73535;52.500;13.482;2024-02-26T02:17:39;100015.41;;;4.02;80.70
83563;BME280;73535;52.500;13.482;2024-02-26T02:20:08;100015.66;;;3.97;80.93
83563;BME280;73535;52.500;13.482;2024-02-26T02:22:33;100013.28;;;3.92;80.77
83563;BME280;73535;52.500;13.482;2024-02-26T02:24:59;100010.09;;;3.87;80.78
83563;BME280;73535;52.500;13.482;2024-02-26T02:27:25;100008.56;;;3.83;80.66
83563;BME280;73535;52.500;13.482;2024-02-26T02:29:51;100009.56;;;3.81;81.33
83563;BME280;73535;52.500;13.482;2024-02-26T02:32:17;100007.91;;;3.80;80.96
83563;BME280;73535;52.500;13.482;2024-02-26T02:34:42;100011.50;;;3.77;80.86
83563;BME280;73535;52.500;13.482;2024-02-26T02:37:07;100011.50;;;3.77;80.89
83563;BME280;73535;52.500;13.482;2024-02-26T02:39:33;100016.53;;;3.80;81.26
83563;BME280;73535;52.500;13.482;2024-02-26T02:41:58;100019.91;;;3.82;81.12
83563;BME280;73535;52.500;13.482;2024-02-26T02:44:23;100023.34;;;3.83;81.30
83563;BME280;73535;52.500;13.482;2024-02-26T02:46:48;100020.22;;;3.76;81.30
83563;BME280;73535;52.500;13.482;2024-02-26T02:49:15;100019.28;;;3.77;81.44
83563;BME280;73535;52.500;13.482;2024-02-26T02:51:41;100015.19;;;3.73;81.40
83563;BME280;73535;52.500;13.482;2024-02-26T02:54:07;100015.25;;;3.72;81.28
83563;BME280;73535;52.500;13.482;2024-02-26T02:56:32;100023.72;;;3.75;81.58
83563;BME280;73535;52.500;13.482;2024-02-26T02:58:57;100030.84;;;3.72;81.63
83563;BME280;73535;52.500;13.482;2024-02-26T03:01:22;100030.09;;;3.70;81.78
83563;BME280;73535;52.500;13.482;2024-02-26T03:03:47;100025.78;;;3.69;81.67
83563;BME280;73535;52.500;13.482;2024-02-26T03:06:13;100018.00;;;3.69;81.61
83563;BME280;73535;52.500;13.482;2024-02-26T03:08:38;100022.38;;;3.68;81.53
83563;BME280;73535;52.500;13.482;2024-02-26T03:11:04;100024.03;;;3.69;82.08
83563;BME280;73535;52.500;13.482;2024-02-26T03:13:30;100021.44;;;3.69;81.60
83563;BME280;73535;52.500;13.482;2024-02-26T03:15:55;100019.94;;;3.65;81.69
83563;BME280;73535;52.500;13.482;2024-02-26T03:18:20;100020.75;;;3.66;81.80
83563;BME280;73535;52.500;13.482;2024-02-26T03:20:45;100025.13;;;3.65;81.67
83563;BME280;73535;52.500;13.482;2024-02-26T03:23:11;100024.44;;;3.62;81.87
83563;BME280;73535;52.500;13.482;2024-02-26T03:25:41;100021.91;;;3.60;81.62
83563;BME280;73535;52.500;13.482;2024-02-26T03:28:06;100023.59;;;3.61;81.82
83563;BME280;73535;52.500;13.482;2024-02-26T03:30:31;100029.88;;;3.57;81.75
83563;BME280;73535;52.500;13.482;2024-02-26T03:32:57;100019.63;;;3.54;81.91
83563;BME280;73535;52.500;13.482;2024-02-26T03:35:22;100013.47;;;3.57;81.85
83563;BME280;73535;52.500;13.482;2024-02-26T03:37:47;100015.38;;;3.53;82.49
83563;BME280;73535;52.500;13.482;2024-02-26T03:40:13;100018.72;;;3.55;82.36
83563;BME280;73535;52.500;13.482;2024-02-26T03:42:39;100018.66;;;3.57;82.08
83563;BME280;73535;52.500;13.482;2024-02-26T03:45:05;100019.63;;;3.54;82.16
83563;BME280;73535;52.500;13.482;2024-02-26T03:47:30;100025.66;;;3.55;82.23
83563;BME280;73535;52.500;13.482;2024-02-26T03:49:55;100020.56;;;3.53;82.02
83563;BME280;73535;52.500;13.482;2024-02-26T03:52:21;100029.25;;;3.52;82.52
83563;BME280;73535;52.500;13.482;2024-02-26T03:54:46;100028.41;;;3.52;82.42
83563;BME280;73535;52.500;13.482;2024-02-26T03:57:11;100028.25;;;3.55;82.32
83563;BME280;73535;52.500;13.482;2024-02-26T03:59:37;100029.19;;;3.54;82.32
83563;BME280;73535;52.500;13.482;2024-02-26T04:02:02;100032.63;;;3.54;82.21
83563;BME280;73535;52.500;13.482;2024-02-26T04:04:27;100029.34;;;3.51;82.30
83563;BME280;73535;52.500;13.482;2024-02-26T04:06:52;100034.78;;;3.46;82.22
83563;BME280;73535;52.500;13.482;2024-02-26T04:09:18;100031.25;;;3.47;82.24
83563;BME280;73535;52.500;13.482;2024-02-26T04:11:43;100032.31;;;3.43;81.67
83563;BME280;73535;52.500;13.482;2024-02-26T04:14:08;100027.22;;;3.41;81.99
83563;BME280;73535;52.500;13.482;2024-02-26T04:16:34;100038.16;;;3.48;82.40
83563;BME280;73535;52.500;13.482;2024-02-26T04:19:00;100036.47;;;3.47;81.88
83563;BME280;73535;52.500;13.482;2024-02-26T04:21:26;100040.66;;;3.50;81.95
83563;BME280;73535;52.500;13.482;2024-02-26T04:23:51;100046.75;;;3.49;81.61
83563;BME280;73535;52.500;13.482;2024-02-26T04:26:20;100050.19;;;3.49;81.95
83563;BME280;73535;52.500;13.482;2024-02-26T04:28:46;100047.69;;;3.48;81.57
83563;BME280;73535;52.500;13.482;2024-02-26T04:31:11;100038.16;;;3.48;82.02
83563;BME280;73535;52.500;13.482;2024-02-26T04:33:36;100051.03;;;3.50;81.86
83563;BME280;73535;52.500;13.482;2024-02-26T04:36:01;100052.94;;;3.46;81.79
83563;BME280;73535;52.500;13.482;2024-02-26T04:38:28;100063.44;;;3.45;81.77
83563;BME280;73535;52.500;13.482;2024-02-26T04:40:53;100072.97;;;3.44;81.70
83563;BME280;73535;52.500;13.482;2024-02-26T04:43:18;100073.56;;;3.49;82.00
83563;BME280;73535;52.500;13.482;2024-02-26T04:45:44;100071.97;;;3.47;82.06
83563;BME280;73535;52.500;13.482;2024-02-26T04:48:09;100083.44;;;3.42;81.95
83563;BME280;73535;52.500;13.482;2024-02-26T04:50:34;100082.75;;;3.39;81.94
83563;BME280;73535;52.500;13.482;2024-02-26T04:53:00;100081.81;;;3.40;82.13
83563;BME280;73535;52.500;13.482;2024-02-26T04:55:25;100082.53;;;3.43;82.06
83563;BME280;73535;52.500;13.482;2024-02-26T04:57:50;100084.97;;;3.47;82.17
83563;BME280;73535;52.500;13.482;2024-02-26T05:00:16;100080.22;;;3.55;82.47
83563;BME280;73535;52.500;13.482;2024-02-26T05:02:41;100079.84;;;3.62;82.52
83563;BME280;73535;52.500;13.482;2024-02-26T05:05:06;100076.25;;;3.65;82.15
83563;BME280;73535;52.500;13.482;2024-02-26T05:07:33;100072.13;;;3.61;82.15
83563;BME280;73535;52.500;13.482;2024-02-26T05:09:58;100080.59;;;3.64;82.01
83563;BME280;73535;52.500;13.482;2024-02-26T05:12:24;100077.16;;;3.64;82.40
83563;BME280;73535;52.500;13.482;2024-02-26T05:14:49;100079.06;;;3.60;82.14
83563;BME280;73535;52.500;13.482;2024-02-26T05:17:14;100086.06;;;3.60;82.29
83563;BME280;73535;52.500;13.482;2024-02-26T05:19:40;100094.66;;;3.60;81.74
83563;BME280;73535;52.500;13.482;2024-02-26T05:22:05;100102.41;;;3.62;82.14
83563;BME280;73535;52.500;13.482;2024-02-26T05:24:30;100099.09;;;3.58;82.13
83563;BME280;73535;52.500;13.482;2024-02-26T05:26:55;100101.00;;;3.55;81.58
83563;BME280;73535;52.500;13.482;2024-02-26T05:29:21;100101.94;;;3.54;81.42
83563;BME280;73535;52.500;13.482;2024-02-26T05:31:46;100107.06;;;3.55;81.76
83563;BME280;73535;52.500;13.482;2024-02-26T05:34:11;100099.25;;;3.55;81.82
83563;BME280;73535;52.500;13.482;2024-02-26T05:36:36;100103.44;;;3.58;81.49
83563;BME280;73535;52.500;13.482;2024-02-26T05:39:02;100099.84;;;3.60;81.77
83563;BME280;73535;52.500;13.482;2024-02-26T05:41:29;100103.31;;;3.61;81.89
83563;BME280;73535;52.500;13.482;2024-02-26T05:43:54;100106.59;;;3.64;82.10
83563;BME280;73535;52.500;13.482;2024-02-26T05:46:20;100110.72;;;3.68;82.18
83563;BME280;73535;52.500;13.482;2024-02-26T05:48:50;100121.13;;;3.68;82.49
83563;BME280;73535;52.500;13.482;2024-02-26T05:51:15;100115.00;;;3.69;81.98
83563;BME280;73535;52.500;13.482;2024-02-26T05:53:41;100120.81;;;3.74;82.34
83563;BME280;73535;52.500;13.482;2024-02-26T05:56:06;100115.78;;;3.71;82.48
83563;BME280;73535;52.500;13.482;2024-02-26T05:58:31;100117.44;;;3.72;82.20
83563;BME280;73535;52.500;13.482;2024-02-26T06:00:56;100127.78;;;3.74;82.42
83563;BME280;73535;52.500;13.482;2024-02-26T06:03:22;100129.69;;;3.70;82.70
83563;BME280;73535;52.500;13.482;2024-02-26T06:05:47;100129.81;;;3.67;82.32
83563;BME280;73535;52.500;13.482;2024-02-26T06:08:12;100129.81;;;3.67;82.69
83563;BME280;73535;52.500;13.482;2024-02-26T06:10:39;100132.13;;;3.73;82.44
83563;BME280;73535;52.500;13.482;2024-02-26T06:13:04;100138.22;;;3.72;82.38
83563;BME280;73535;52.500;13.482;2024-02-26T06:15:29;100138.16;;;3.74;82.13
83563;BME280;73535;52.500;13.482;2024-02-26T06:17:55;100142.38;;;3.76;82.15
83563;BME280;73535;52.500;13.482;2024-02-26T06:20:20;100138.06;;;3.75;82.17
83563;BME280;73535;52.500;13.482;2024-02-26T06:22:45;100138.69;;;3.80;82.08
83563;BME280;73535;52.500;13.482;2024-02-26T06:25:10;100135.31;;;3.78;82.29
83563;BME280;73535;52.500;13.482;2024-02-26T06:27:36;100144.81;;;3.79;82.16
83563;BME280;73535;52.500;13.482;2024-02-26T06:30:01;100142.06;;;3.82;82.43
83563;BME280;73535;52.500;13.482;2024-02-26T06:32:26;100133.31;;;3.83;82.80
83563;BME280;73535;52.500;13.482;2024-02-26T06:34:53;100147.09;;;3.85;82.37
83563;BME280;73535;52.500;13.482;2024-02-26T06:37:19;100143.56;;;3.86;82.64
83563;BME280;73535;52.500;13.482;2024-02-26T06:39:44;100147.09;;;3.85;82.52
83563;BME280;73535;52.500;13.482;2024-02-26T06:42:09;100156.50;;;3.88;82.79
83563;BME280;73535;52.500;13.482;2024-02-26T06:44:34;100158.94;;;3.91;82.91
83563;BME280;73535;52.500;13.482;2024-02-26T06:47:00;100162.41;;;3.91;82.83
83563;BME280;73535;52.500;13.482;2024-02-26T06:49:26;100168.94;;;3.98;83.08
83563;BME280;73535;52.500;13.482;2024-02-26T06:51:52;100172.25;;;4.02;83.01
83563;BME280;73535;52.500;13.482;2024-02-26T06:54:17;100167.78;;;4.04;83.20
83563;BME280;73535;52.500;13.482;2024-02-26T06:56:43;100172.53;;;4.13;83.15
83563;BME280;73535;52.500;13.482;2024-02-26T06:59:08;100177.28;;;4.22;82.95
83563;BME280;73535;52.500;13.482;2024-02-26T07:01:33;100165.88;;;4.25;82.63
83563;BME280;73535;52.500;13.482;2024-02-26T07:03:58;100178.66;;;4.29;82.79
83563;BME280;73535;52.500;13.482;2024-02-26T07:06:23;100182.84;;;4.32;83.06
83563;BME280;73535;52.500;13.482;2024-02-26T07:08:49;100177.66;;;4.32;83.01
83563;BME280;73535;52.500;13.482;2024-02-26T07:11:14;100183.44;;;4.37;82.49
83563;BME280;73535;52.500;13.482;2024-02-26T07:13:39;100192.78;;;4.41;82.51
83563;BME280;73535;52.500;13.482;2024-02-26T07:16:05;100197.84;;;4.44;82.72
83563;BME280;73535;52.500;13.482;2024-02-26T07:18:30;100200.19;;;4.48;82.47
83563;BME280;73535;52.500;13.482;2024-02-26T07:20:55;100195.50;;;4.55;82.52
83563;BME280;73535;52.500;13.482;2024-02-26T07:23:21;100188.28;;;4.60;82.34
83563;BME280;73535;52.500;13.482;2024-02-26T07:25:46;100190.72;;;4.63;82.43
83563;BME280;73535;52.500;13.482;2024-02-26T07:28:14;100194.94;;;4.66;82.43
83563;BME280;73535;52.500;13.482;2024-02-26T07:30:39;100192.31;;;4.66;82.23
83563;BME280;73535;52.500;13.482;2024-02-26T07:33:04;100199.88;;;4.70;82.11
83563;BME280;73535;52.500;13.482;2024-02-26T07:35:29;100195.28;;;4.75;81.92
83563;BME280;73535;52.500;13.482;2024-02-26T07:37:55;100194.34;;;4.76;81.79
83563;BME280;73535;52.500;13.482;2024-02-26T07:40:20;100190.00;;;4.77;82.17
83563;BME280;73535;52.500;13.482;2024-02-26T07:42:45;100194.97;;;4.81;82.18
83563;BME280;73535;52.500;13.482;2024-02-26T07:45:10;100186.84;;;4.87;81.76
83563;BME280;73535;52.500;13.482;2024-02-26T07:47:35;100196.06;;;4.93;81.68
83563;BME280;73535;52.500;13.482;2024-02-26T07:50:02;100185.34;;;4.99;81.65
83563;BME280;73535;52.500;13.482;2024-02-26T07:52:28;100193.06;;;5.00;81.53
83563;BME280;73535;52.500;13.482;2024-02-26T07:54:53;100187.19;;;5.12;81.58
83563;BME280;73535;52.500;13.482;2024-02-26T07:57:18;100189.28;;;5.22;81.15
83563;BME280;73535;52.500;13.482;2024-02-26T07:59:44;100191.56;;;5.28;80.95
83563;BME280;73535;52.500;13.482;2024-02-26T08:02:10;100186.06;;;5.32;81.04
83563;BME280;73535;52.500;13.482;2024-02-26T08:04:35;100190.78;;;5.41;80.69
83563;BME280;73535;52.500;13.482;2024-02-26T08:07:00;100194.06;;;5.45;80.62
83563;BME280;73535;52.500;13.482;2024-02-26T08:09:25;100189.16;;;5.54;80.38
83563;BME280;73535;52.500;13.482;2024-02-26T08:11:50;100198.59;;;5.57;80.73
83563;BME280;73535;52.500;13.482;2024-02-26T08:14:16;100198.03;;;5.66;80.39
83563;BME280;73535;52.500;13.482;2024-02-26T08:16:41;100195.34;;;5.67;80.38
83563;BME280;73535;52.500;13.482;2024-02-26T08:19:06;100192.47;;;5.72;80.25
83563;BME280;73535;52.500;13.482;2024-02-26T08:21:31;100206.84;;;5.79;80.30
83563;BME280;73535;52.500;13.482;2024-02-26T08:23:57;100200.41;;;5.86;80.21
83563;BME280;73535;52.500;13.482;2024-02-26T08:26:22;100189.59;;;5.92;80.19
83563;BME280;73535;52.500;13.482;2024-02-26T08:28:49;100190.25;;;5.96;79.99
83563;BME280;73535;52.500;13.482;2024-02-26T08:31:16;100192.34;;;6.05;79.76
83563;BME280;73535;52.500;13.482;2024-02-26T08:33:41;100199.91;;;6.09;79.93
83563;BME280;73535;52.500;13.482;2024-02-26T08:36:06;100195.25;;;6.14;79.60
83563;BME280;73535;52.500;13.482;2024-02-26T08:38:32;100190.31;;;6.24;79.54
83563;BME280;73535;52.500;13.482;2024-02-26T08:40:59;100197.53;;;6.35;79.74
83563;BME280;73535;52.500;13.482;2024-02-26T08:43:24;100193.59;;;6.42;79.29
83563;BME280;73535;52.500;13.482;2024-02-26T08:45:50;100184.56;;;6.47;79.15
83563;BME280;73535;52.500;13.482;2024-02-26T08:48:15;100187.47;;;6.57;78.62
83563;BME280;73535;52.500;13.482;2024-02-26T08:50:40;100184.41;;;6.64;78.35
83563;BME280;73535;52.500;13.482;2024-02-26T08:53:05;100184.84;;;6.71;77.68
83563;BME280;73535;52.500;13.482;2024-02-26T08:55:32;100187.44;;;6.85;77.85
83563;BME280;73535;52.500;13.482;2024-02-26T08:57:57;100186.53;;;6.86;77.30
83563;BME280;73535;52.500;13.482;2024-02-26T09:00:22;100187.06;;;6.91;76.97
83563;BME280;73535;52.500;13.482;2024-02-26T09:02:48;100187.47;;;6.99;76.91
83563;BME280;73535;52.500;13.482;2024-02-26T09:05:14;100188.53;;;7.09;76.28
83563;BME280;73535;52.500;13.482;2024-02-26T09:07:39;100185.34;;;7.18;76.03
83563;BME280;73535;52.500;13.482;2024-02-26T09:10:05;100187.28;;;7.29;76.14
83563;BME280;73535;52.500;13.482;2024-02-26T09:12:30;100191.47;;;7.31;75.81
83563;BME280;73535;52.500;13.482;2024-02-26T09:14:56;100184.00;;;7.39;75.42
83563;BME280;73535;52.500;13.482;2024-02-26T09:17:22;100180.88;;;7.47;75.51
83563;BME280;73535;52.500;13.482;2024-02-26T09:19:47;100191.78;;;7.54;74.89
83563;BME280;73535;52.500;13.482;2024-02-26T09:22:13;100184.47;;;7.59;75.11
83563;BME280;73535;52.500;13.482;2024-02-26T09:24:38;100177.81;;;7.67;74.42
83563;BME280;73535;52.500;13.482;2024-02-26T09:27:03;100177.41;;;7.73;74.17
83563;BME280;73535;52.500;13.482;2024-02-26T09:29:28;100181.81;;;7.73;74.54
83563;BME280;73535;52.500;13.482;2024-02-26T09:31:54;100184.94;;;7.78;73.75
83563;BME280;73535;52.500;13.482;2024-02-26T09:34:19;100185.41;;;7.84;73.37
83563;BME280;73535;52.500;13.482;2024-02-26T09:36:44;100180.81;;;7.88;73.77
83563;BME280;73535;52.500;13.482;2024-02-26T09:39:10;100184.69;;;7.95;73.30
83563;BME280;73535;52.500;13.482;2024-02-26T09:41:36;100183.13;;;8.05;73.04
83563;BME280;73535;52.500;13.482;2024-02-26T09:44:02;100180.13;;;8.11;72.81
83563;BME280;73535;52.500;13.482;2024-02-26T09:46:30;100194.47;;;8.18;72.33
83563;BME280;73535;52.500;13.482;2024-02-26T09:48:55;100183.41;;;8.27;72.67
83563;BME280;73535;52.500;13.482;2024-02-26T09:51:22;100192.66;;;8.33;71.51
83563;BME280;73535;52.500;13.482;2024-02-26T09:53:51;100187.81;;;8.39;71.29
83563;BME280;73535;52.500;13.482;2024-02-26T09:56:16;100193.59;;;8.44;70.81
83563;BME280;73535;52.500;13.482;2024-02-26T09:58:42;100199.84;;;8.55;70.44
83563;BME280;73535;52.500;13.482;2024-02-26T10:01:14;100202.69;;;8.64;70.42
83563;BME280;73535;52.500;13.482;2024-02-26T10:03:41;100194.72;;;8.66;69.70
83563;BME280;73535;52.500;13.482;2024-02-26T10:06:09;100204.25;;;8.79;69.29
83563;BME280;73535;52.500;13.482;2024-02-26T10:08:35;100200.16;;;8.88;69.01
83563;BME280;73535;52.500;13.482;2024-02-26T10:11:00;100195.22;;;8.96;68.91
83563;BME280;73535;52.500;13.482;2024-02-26T10:13:25;100201.69;;;9.03;68.12
83563;BME280;73535;52.500;13.482;2024-02-26T10:15:51;100194.13;;;9.11;68.32
83563;BME280;73535;52.500;13.482;2024-02-26T10:18:16;100202.16;;;9.21;68.42
83563;BME280;73535;52.500;13.482;2024-02-26T10:20:41;100198.16;;;9.28;67.39
83563;BME280;73535;52.500;13.482;2024-02-26T10:23:06;100195.22;;;9.32;66.82
83563;BME280;73535;52.500;13.482;2024-02-26T10:25:32;100204.09;;;9.42;66.74
83563;BME280;73535;52.500;13.482;2024-02-26T10:28:01;100203.03;;;9.45;66.64
83563;BME280;73535;52.500;13.482;2024-02-26T10:30:29;100199.00;;;9.52;66.38
83563;BME280;73535;52.500;13.482;2024-02-26T10:32:55;100194.66;;;9.63;66.16
83563;BME280;73535;52.500;13.482;2024-02-26T10:35:21;100204.00;;;9.68;65.48
83563;BME280;73535;52.500;13.482;2024-02-26T10:37:46;100200.91;;;9.74;65.65
83563;BME280;73535;52.500;13.482;2024-02-26T10:40:15;100195.94;;;9.82;65.97
83563;BME280;73535;52.500;13.482;2024-02-26T10:42:41;100199.78;;;9.89;65.46
83563;BME280;73535;52.500;13.482;2024-02-26T10:45:08;100191.78;;;9.90;65.03
83563;BME280;73535;52.500;13.482;2024-02-26T10:47:34;100188.00;;;9.94;64.55
83563;BME280;73535;52.500;13.482;2024-02-26T10:50:02;100193.75;;;9.99;63.99
83563;BME280;73535;52.500;13.482;2024-02-26T10:52:33;100196.13;;;10.02;63.71
83563;BME280;73535;52.500;13.482;2024-02-26T10:55:01;100198.06;;;10.11;63.99
83563;BME280;73535;52.500;13.482;2024-02-26T10:57:31;100200.88;;;10.21;63.68
83563;BME280;73535;52.500;13.482;2024-02-26T10:59:57;100210.31;;;10.24;63.95
83563;BME280;73535;52.500;13.482;2024-02-26T11:02:23;100205.56;;;10.29;63.74
83563;BME280;73535;52.500;13.482;2024-02-26T11:04:49;100202.94;;;10.29;63.82
83563;BME280;73535;52.500;13.482;2024-02-26T11:07:15;100206.78;;;10.36;64.05
83563;BME280;73535;52.500;13.482;2024-02-26T11:09:41;100203.69;;;10.42;63.40
83563;BME280;73535;52.500;13.482;2024-02-26T11:12:10;100197.22;;;10.46;62.96
83563;BME280;73535;52.500;13.482;2024-02-26T11:14:39;100196.91;;;10.50;62.62
83563;BME280;73535;52.500;13.482;2024-02-26T11:17:05;100196.91;;;10.50;62.31
83563;BME280;73535;52.500;13.482;2024-02-26T11:19:35;100193.91;;;10.55;62.56
83563;BME280;73535;52.500;13.482;2024-02-26T11:22:01;100191.75;;;10.60;61.96
83563;BME280;73535;52.500;13.482;2024-02-26T11:24:26;100194.97;;;10.63;62.21
83563;BME280;73535;52.500;13.482;2024-02-26T11:26:54;100196.75;;;10.63;61.56
83563;BME280;73535;52.500;13.482;2024-02-26T11:29:25;100199.53;;;10.72;61.85
83563;BME280;73535;52.500;13.482;2024-02-26T11:31:52;100201.91;;;10.75;61.51
83563;BME280;73535;52.500;13.482;2024-02-26T11:34:18;100195.13;;;10.73;60.65
83563;BME280;73535;52.500;13.482;2024-02-26T11:36:43;100203.59;;;10.76;60.67
83563;BME280;73535;52.500;13.482;2024-02-26T11:39:11;100199.28;;;10.87;61.07
83563;BME280;73535;52.500;13.482;2024-02-26T11:41:38;100197.84;;;10.83;59.74
83563;BME280;73535;52.500;13.482;2024-02-26T11:44:03;100200.22;;;10.86;60.15
83563;BME280;73535;52.500;13.482;2024-02-26T11:46:33;100203.00;;;10.95;60.20
83563;BME280;73535;52.500;13.482;2024-02-26T11:49:03;100193.78;;;11.01;59.85
83563;BME280;73535;52.500;13.482;2024-02-26T11:51:51;100191.91;;;11.03;58.67
83563;BME280;73535;52.500;13.482;2024-02-26T11:54:46;100192.34;;;11.08;58.40
83563;BME280;73535;52.500;13.482;2024-02-26T11:57:38;100186.84;;;11.11;57.34
83563;BME280;73535;52.500;13.482;2024-02-26T12:02:44;100195.44;;;11.13;57.19
83563;BME280;73535;52.500;13.482;2024-02-26T12:05:20;100194.38;;;11.15;57.23
83563;BME280;73535;52.500;13.482;2024-02-26T12:08:09;100191.63;;;11.17;56.75
83563;BME280;73535;52.500;13.482;2024-02-26T12:10:37;100193.78;;;11.23;56.97
83563;BME280;73535;52.500;13.482;2024-02-26T12:13:10;100190.06;;;11.25;56.96
83563;BME280;73535;52.500;13.482;2024-02-26T12:15:38;100196.88;;;11.28;56.65
83563;BME280;73535;52.500;13.482;2024-02-26T12:18:06;100186.81;;;11.33;55.91
83563;BME280;73535;52.500;13.482;2024-02-26T12:20:33;100186.31;;;11.39;55.87
83563;BME280;73535;52.500;13.482;2024-02-26T12:22:59;100184.38;;;11.41;55.00
83563;BME280;73535;52.500;13.482;2024-02-26T12:25:26;100180.56;;;11.45;54.87
83563;BME280;73535;52.500;13.482;2024-02-26T12:27:52;100186.28;;;11.50;54.70
83563;BME280;73535;52.500;13.482;2024-02-26T12:30:18;100192.00;;;11.55;53.96
83563;BME280;73535;52.500;13.482;2024-02-26T12:32:44;100195.63;;;11.54;53.54
83563;BME280;73535;52.500;13.482;2024-02-26T12:35:09;100194.03;;;11.63;53.74
83563;BME280;73535;52.500;13.482;2024-02-26T12:37:34;100193.78;;;11.66;54.32
83563;BME280;73535;52.500;13.482;2024-02-26T12:40:04;100196.06;;;11.70;54.55
83563;BME280;73535;52.500;13.482;2024-02-26T12:42:31;100209.81;;;11.74;54.38
83563;BME280;73535;52.500;13.482;2024-02-26T12:44:58;100211.09;;;11.79;55.24